Terminal Aerodrome Forecast
Issued by NWS

Home | Current Version | Previous Version | Text Only | Print | Product List | Glossary On
Versions: 1 2 3 4 5 6 7 8 9 10 11 12 13 14
023
FTUS44 KEPZ 271724
TAFLRU
TAF
KLRU 271724Z 2718/2818 11007KT P6SM BKN050
     FM272000 12005KT P6SM BKN070 BKN250
     FM280200 10006KT P6SM SCT100 BKN250=

USA.gov is the U.S. government's official web portal to all federal, state and local government web resources and services.